sensor_id;sensor_type;location;lat;lon;timestamp;P1;durP1;ratioP1;P2;durP2;ratioP2
59008;SDS011;44794;42.652;23.318;2022-11-15T00:01:33;223.10;;;83.95;;
59008;SDS011;44794;42.652;23.318;2022-11-15T00:03:58;214.80;;;83.70;;
59008;SDS011;44794;42.652;23.318;2022-11-15T00:06:24;211.88;;;79.45;;
59008;SDS011;44794;42.652;23.318;2022-11-15T00:08:49;205.65;;;77.63;;
59008;SDS011;44794;42.652;23.318;2022-11-15T00:11:15;197.68;;;75.75;;
59008;SDS011;44794;42.652;23.318;2022-11-15T00:13:40;202.00;;;75.68;;
59008;SDS011;44794;42.652;23.318;2022-11-15T00:16:06;200.25;;;70.43;;
59008;SDS011;44794;42.652;23.318;2022-11-15T00:18:31;205.85;;;72.30;;
59008;SDS011;44794;42.652;23.318;2022-11-15T00:21:02;210.57;;;73.13;;
59008;SDS011;44794;42.652;23.318;2022-11-15T00:23:30;225.45;;;75.30;;
59008;SDS011;44794;42.652;23.318;2022-11-15T00:25:56;224.52;;;77.03;;
59008;SDS011;44794;42.652;23.318;2022-11-15T00:28:22;242.23;;;79.13;;
59008;SDS011;44794;42.652;23.318;2022-11-15T00:30:48;227.63;;;79.10;;
59008;SDS011;44794;42.652;23.318;2022-11-15T00:33:13;199.75;;;74.45;;
59008;SDS011;44794;42.652;23.318;2022-11-15T00:35:39;187.93;;;67.55;;
59008;SDS011;44794;42.652;23.318;2022-11-15T00:38:04;191.80;;;65.45;;
59008;SDS011;44794;42.652;23.318;2022-11-15T00:40:29;190.85;;;68.57;;
59008;SDS011;44794;42.652;23.318;2022-11-15T00:42:55;190.98;;;71.10;;
59008;SDS011;44794;42.652;23.318;2022-11-15T00:45:21;202.43;;;71.28;;
59008;SDS011;44794;42.652;23.318;2022-11-15T00:47:47;213.32;;;78.00;;
59008;SDS011;44794;42.652;23.318;2022-11-15T00:50:12;210.98;;;77.40;;
59008;SDS011;44794;42.652;23.318;2022-11-15T00:52:38;195.80;;;75.53;;
59008;SDS011;44794;42.652;23.318;2022-11-15T00:55:04;212.00;;;77.22;;
59008;SDS011;44794;42.652;23.318;2022-11-15T00:57:29;214.48;;;76.18;;
59008;SDS011;44794;42.652;23.318;2022-11-15T00:59:55;219.43;;;77.55;;
59008;SDS011;44794;42.652;23.318;2022-11-15T01:02:20;218.18;;;78.72;;
59008;SDS011;44794;42.652;23.318;2022-11-15T01:04:46;216.00;;;77.28;;
59008;SDS011;44794;42.652;23.318;2022-11-15T01:07:12;218.15;;;77.70;;
59008;SDS011;44794;42.652;23.318;2022-11-15T01:09:37;232.82;;;79.88;;
59008;SDS011;44794;42.652;23.318;2022-11-15T01:12:03;251.48;;;86.18;;
59008;SDS011;44794;42.652;23.318;2022-11-15T01:14:29;233.98;;;84.07;;
59008;SDS011;44794;42.652;23.318;2022-11-15T01:16:54;226.30;;;80.10;;
59008;SDS011;44794;42.652;23.318;2022-11-15T01:19:20;219.93;;;80.60;;
59008;SDS011;44794;42.652;23.318;2022-11-15T01:21:45;218.63;;;75.30;;
59008;SDS011;44794;42.652;23.318;2022-11-15T01:24:14;222.98;;;78.97;;
59008;SDS011;44794;42.652;23.318;2022-11-15T01:26:40;221.05;;;77.57;;
59008;SDS011;44794;42.652;23.318;2022-11-15T01:29:05;216.18;;;73.45;;
59008;SDS011;44794;42.652;23.318;2022-11-15T01:31:31;228.80;;;76.25;;
59008;SDS011;44794;42.652;23.318;2022-11-15T01:33:56;237.20;;;77.18;;
59008;SDS011;44794;42.652;23.318;2022-11-15T01:36:22;247.65;;;82.72;;
59008;SDS011;44794;42.652;23.318;2022-11-15T01:38:52;258.45;;;84.82;;
59008;SDS011;44794;42.652;23.318;2022-11-15T01:41:20;252.25;;;83.50;;
59008;SDS011;44794;42.652;23.318;2022-11-15T01:46:50;229.50;;;74.47;;
59008;SDS011;44794;42.652;23.318;2022-11-15T01:49:17;210.75;;;71.63;;
59008;SDS011;44794;42.652;23.318;2022-11-15T01:51:45;192.23;;;69.00;;
59008;SDS011;44794;42.652;23.318;2022-11-15T01:54:13;198.27;;;70.38;;
59008;SDS011;44794;42.652;23.318;2022-11-15T01:56:45;205.35;;;65.28;;
59008;SDS011;44794;42.652;23.318;2022-11-15T01:59:16;227.20;;;69.32;;
59008;SDS011;44794;42.652;23.318;2022-11-15T02:01:41;224.30;;;73.05;;
59008;SDS011;44794;42.652;23.318;2022-11-15T02:04:10;186.48;;;68.05;;
59008;SDS011;44794;42.652;23.318;2022-11-15T02:06:40;183.18;;;65.10;;
59008;SDS011;44794;42.652;23.318;2022-11-15T02:09:07;192.18;;;64.95;;
59008;SDS011;44794;42.652;23.318;2022-11-15T02:11:33;190.82;;;63.00;;
59008;SDS011;44794;42.652;23.318;2022-11-15T02:13:58;191.93;;;64.93;;
59008;SDS011;44794;42.652;23.318;2022-11-15T02:19:18;204.02;;;64.78;;
59008;SDS011;44794;42.652;23.318;2022-11-15T02:32:50;218.77;;;63.72;;
59008;SDS011;44794;42.652;23.318;2022-11-15T02:35:28;218.70;;;65.60;;
59008;SDS011;44794;42.652;23.318;2022-11-15T02:38:12;230.68;;;65.45;;
59008;SDS011;44794;42.652;23.318;2022-11-15T02:40:57;192.25;;;59.97;;
59008;SDS011;44794;42.652;23.318;2022-11-15T02:43:26;188.73;;;60.35;;
59008;SDS011;44794;42.652;23.318;2022-11-15T02:46:16;209.98;;;63.92;;
59008;SDS011;44794;42.652;23.318;2022-11-15T02:49:10;206.38;;;61.80;;
59008;SDS011;44794;42.652;23.318;2022-11-15T02:51:37;199.40;;;66.00;;
59008;SDS011;44794;42.652;23.318;2022-11-15T02:54:04;196.25;;;63.38;;
59008;SDS011;44794;42.652;23.318;2022-11-15T02:56:29;193.65;;;61.63;;
59008;SDS011;44794;42.652;23.318;2022-11-15T02:59:02;193.77;;;60.28;;
59008;SDS011;44794;42.652;23.318;2022-11-15T03:07:15;170.80;;;55.95;;
59008;SDS011;44794;42.652;23.318;2022-11-15T03:09:56;187.70;;;59.28;;
59008;SDS011;44794;42.652;23.318;2022-11-15T03:12:46;208.50;;;61.58;;
59008;SDS011;44794;42.652;23.318;2022-11-15T03:15:18;206.65;;;60.13;;
59008;SDS011;44794;42.652;23.318;2022-11-15T03:18:11;196.77;;;60.17;;
59008;SDS011;44794;42.652;23.318;2022-11-15T03:20:41;189.80;;;61.45;;
59008;SDS011;44794;42.652;23.318;2022-11-15T03:23:08;190.90;;;60.55;;
59008;SDS011;44794;42.652;23.318;2022-11-15T03:25:36;201.57;;;62.47;;
59008;SDS011;44794;42.652;23.318;2022-11-15T03:28:06;163.30;;;55.13;;
59008;SDS011;44794;42.652;23.318;2022-11-15T03:30:34;185.32;;;58.97;;
59008;SDS011;44794;42.652;23.318;2022-11-15T03:33:02;191.48;;;63.28;;
59008;SDS011;44794;42.652;23.318;2022-11-15T03:35:37;175.15;;;59.15;;
59008;SDS011;44794;42.652;23.318;2022-11-15T03:40:40;171.88;;;58.67;;
59008;SDS011;44794;42.652;23.318;2022-11-15T03:43:34;155.43;;;55.35;;
59008;SDS011;44794;42.652;23.318;2022-11-15T03:46:11;151.75;;;55.10;;
59008;SDS011;44794;42.652;23.318;2022-11-15T03:48:41;143.52;;;52.53;;
59008;SDS011;44794;42.652;23.318;2022-11-15T03:51:12;141.80;;;50.85;;
59008;SDS011;44794;42.652;23.318;2022-11-15T03:53:38;150.85;;;52.58;;
59008;SDS011;44794;42.652;23.318;2022-11-15T03:56:05;153.27;;;53.10;;
59008;SDS011;44794;42.652;23.318;2022-11-15T03:58:31;450.23;;;84.28;;
59008;SDS011;44794;42.652;23.318;2022-11-15T04:00:56;189.38;;;58.08;;
59008;SDS011;44794;42.652;23.318;2022-11-15T04:03:22;341.15;;;75.13;;
59008;SDS011;44794;42.652;23.318;2022-11-15T04:05:47;271.80;;;66.15;;
59008;SDS011;44794;42.652;23.318;2022-11-15T04:08:13;344.52;;;76.25;;
59008;SDS011;44794;42.652;23.318;2022-11-15T04:10:38;282.35;;;68.03;;
59008;SDS011;44794;42.652;23.318;2022-11-15T04:13:04;220.88;;;59.97;;
59008;SDS011;44794;42.652;23.318;2022-11-15T04:15:29;258.90;;;59.22;;
59008;SDS011;44794;42.652;23.318;2022-11-15T04:17:55;348.15;;;68.18;;
59008;SDS011;44794;42.652;23.318;2022-11-15T04:20:26;521.08;;;76.43;;
59008;SDS011;44794;42.652;23.318;2022-11-15T04:23:21;500.30;;;76.38;;
59008;SDS011;44794;42.652;23.318;2022-11-15T04:26:07;446.70;;;77.85;;
59008;SDS011;44794;42.652;23.318;2022-11-15T04:28:36;588.63;;;81.40;;
59008;SDS011;44794;42.652;23.318;2022-11-15T04:31:22;574.25;;;80.60;;
59008;SDS011;44794;42.652;23.318;2022-11-15T04:33:48;707.13;;;85.63;;
59008;SDS011;44794;42.652;23.318;2022-11-15T04:36:13;498.27;;;78.53;;
59008;SDS011;44794;42.652;23.318;2022-11-15T04:38:58;877.63;;;93.35;;
59008;SDS011;44794;42.652;23.318;2022-11-15T04:41:23;536.88;;;88.38;;
59008;SDS011;44794;42.652;23.318;2022-11-15T04:43:48;592.03;;;89.80;;
59008;SDS011;44794;42.652;23.318;2022-11-15T04:46:14;360.25;;;76.78;;
59008;SDS011;44794;42.652;23.318;2022-11-15T04:48:39;629.72;;;94.72;;
59008;SDS011;44794;42.652;23.318;2022-11-15T04:51:05;594.47;;;119.57;;
59008;SDS011;44794;42.652;23.318;2022-11-15T04:53:30;455.48;;;98.07;;
59008;SDS011;44794;42.652;23.318;2022-11-15T04:55:56;516.28;;;99.90;;
59008;SDS011;44794;42.652;23.318;2022-11-15T04:58:21;422.45;;;95.93;;
59008;SDS011;44794;42.652;23.318;2022-11-15T05:00:47;401.13;;;94.57;;
59008;SDS011;44794;42.652;23.318;2022-11-15T05:03:12;319.38;;;92.78;;
59008;SDS011;44794;42.652;23.318;2022-11-15T05:05:56;391.90;;;95.97;;
59008;SDS011;44794;42.652;23.318;2022-11-15T05:08:22;506.70;;;97.28;;
59008;SDS011;44794;42.652;23.318;2022-11-15T05:10:48;729.88;;;99.10;;
59008;SDS011;44794;42.652;23.318;2022-11-15T05:13:13;520.47;;;83.53;;
59008;SDS011;44794;42.652;23.318;2022-11-15T05:15:39;675.10;;;94.13;;
59008;SDS011;44794;42.652;23.318;2022-11-15T05:18:04;526.15;;;84.53;;
59008;SDS011;44794;42.652;23.318;2022-11-15T05:20:30;808.90;;;91.25;;
59008;SDS011;44794;42.652;23.318;2022-11-15T05:22:55;240.15;;;85.78;;
59008;SDS011;44794;42.652;23.318;2022-11-15T05:25:21;254.82;;;89.45;;
59008;SDS011;44794;42.652;23.318;2022-11-15T05:27:47;236.73;;;84.93;;
59008;SDS011;44794;42.652;23.318;2022-11-15T05:30:12;182.00;;;71.90;;
59008;SDS011;44794;42.652;23.318;2022-11-15T05:32:38;137.23;;;55.33;;
59008;SDS011;44794;42.652;23.318;2022-11-15T05:35:04;114.93;;;48.70;;
59008;SDS011;44794;42.652;23.318;2022-11-15T05:37:33;122.25;;;47.00;;
59008;SDS011;44794;42.652;23.318;2022-11-15T05:39:59;122.57;;;46.33;;
59008;SDS011;44794;42.652;23.318;2022-11-15T05:42:24;126.20;;;45.83;;
59008;SDS011;44794;42.652;23.318;2022-11-15T05:44:51;121.10;;;46.35;;
59008;SDS011;44794;42.652;23.318;2022-11-15T05:47:19;143.80;;;50.33;;
59008;SDS011;44794;42.652;23.318;2022-11-15T05:49:49;139.75;;;47.90;;
59008;SDS011;44794;42.652;23.318;2022-11-15T05:52:17;136.77;;;50.58;;
59008;SDS011;44794;42.652;23.318;2022-11-15T05:54:46;137.82;;;48.15;;
59008;SDS011;44794;42.652;23.318;2022-11-15T05:57:12;134.93;;;48.20;;
59008;SDS011;44794;42.652;23.318;2022-11-15T05:59:37;165.23;;;51.92;;
59008;SDS011;44794;42.652;23.318;2022-11-15T06:02:05;144.52;;;48.83;;
59008;SDS011;44794;42.652;23.318;2022-11-15T06:04:30;150.80;;;50.33;;
59008;SDS011;44794;42.652;23.318;2022-11-15T06:06:57;165.55;;;50.58;;
59008;SDS011;44794;42.652;23.318;2022-11-15T06:09:23;154.00;;;49.63;;
59008;SDS011;44794;42.652;23.318;2022-11-15T06:11:49;194.75;;;50.30;;
59008;SDS011;44794;42.652;23.318;2022-11-15T06:14:14;173.88;;;49.20;;
59008;SDS011;44794;42.652;23.318;2022-11-15T06:16:40;322.20;;;54.22;;
59008;SDS011;44794;42.652;23.318;2022-11-15T06:19:06;287.33;;;56.35;;
59008;SDS011;44794;42.652;23.318;2022-11-15T06:21:32;383.70;;;59.20;;
59008;SDS011;44794;42.652;23.318;2022-11-15T06:23:58;359.95;;;62.05;;
59008;SDS011;44794;42.652;23.318;2022-11-15T06:26:23;487.52;;;62.92;;
59008;SDS011;44794;42.652;23.318;2022-11-15T06:28:49;417.48;;;61.58;;
59008;SDS011;44794;42.652;23.318;2022-11-15T06:31:14;345.02;;;61.47;;
59008;SDS011;44794;42.652;23.318;2022-11-15T06:33:40;421.17;;;65.35;;
59008;SDS011;44794;42.652;23.318;2022-11-15T06:36:08;429.63;;;63.55;;
59008;SDS011;44794;42.652;23.318;2022-11-15T06:38:38;382.55;;;65.90;;
59008;SDS011;44794;42.652;23.318;2022-11-15T06:41:08;375.30;;;63.70;;
59008;SDS011;44794;42.652;23.318;2022-11-15T06:43:35;315.35;;;65.65;;
59008;SDS011;44794;42.652;23.318;2022-11-15T06:46:01;391.75;;;66.22;;
59008;SDS011;44794;42.652;23.318;2022-11-15T06:48:28;324.85;;;65.72;;
59008;SDS011;44794;42.652;23.318;2022-11-15T06:50:56;617.72;;;70.18;;
59008;SDS011;44794;42.652;23.318;2022-11-15T06:53:23;409.40;;;61.00;;
59008;SDS011;44794;42.652;23.318;2022-11-15T06:55:49;364.92;;;61.25;;
59008;SDS011;44794;42.652;23.318;2022-11-15T06:58:15;492.17;;;67.75;;
59008;SDS011;44794;42.652;23.318;2022-11-15T07:00:41;463.30;;;67.93;;
59008;SDS011;44794;42.652;23.318;2022-11-15T07:03:07;446.42;;;70.00;;
59008;SDS011;44794;42.652;23.318;2022-11-15T07:05:33;448.30;;;69.57;;
59008;SDS011;44794;42.652;23.318;2022-11-15T07:07:58;486.90;;;74.68;;
59008;SDS011;44794;42.652;23.318;2022-11-15T07:10:24;479.63;;;71.85;;
59008;SDS011;44794;42.652;23.318;2022-11-15T07:12:51;382.55;;;69.82;;
59008;SDS011;44794;42.652;23.318;2022-11-15T07:15:17;431.73;;;70.05;;
59008;SDS011;44794;42.652;23.318;2022-11-15T07:17:44;345.65;;;63.67;;
59008;SDS011;44794;42.652;23.318;2022-11-15T07:20:13;415.85;;;65.90;;
59008;SDS011;44794;42.652;23.318;2022-11-15T07:22:40;434.38;;;66.80;;
59008;SDS011;44794;42.652;23.318;2022-11-15T07:25:06;498.02;;;72.72;;
59008;SDS011;44794;42.652;23.318;2022-11-15T07:27:32;413.55;;;68.07;;
59008;SDS011;44794;42.652;23.318;2022-11-15T07:29:57;444.30;;;68.03;;
59008;SDS011;44794;42.652;23.318;2022-11-15T07:32:23;482.70;;;71.53;;
59008;SDS011;44794;42.652;23.318;2022-11-15T07:34:48;374.95;;;67.00;;
59008;SDS011;44794;42.652;23.318;2022-11-15T07:37:14;344.67;;;71.40;;
59008;SDS011;44794;42.652;23.318;2022-11-15T07:39:39;458.48;;;73.57;;
59008;SDS011;44794;42.652;23.318;2022-11-15T07:42:04;389.67;;;68.93;;
59008;SDS011;44794;42.652;23.318;2022-11-15T07:44:53;285.30;;;70.68;;
59008;SDS011;44794;42.652;23.318;2022-11-15T07:47:18;289.15;;;69.50;;
59008;SDS011;44794;42.652;23.318;2022-11-15T07:49:44;328.95;;;70.53;;
59008;SDS011;44794;42.652;23.318;2022-11-15T07:52:11;266.33;;;71.00;;
59008;SDS011;44794;42.652;23.318;2022-11-15T07:54:37;263.00;;;70.20;;
59008;SDS011;44794;42.652;23.318;2022-11-15T07:57:03;263.27;;;70.10;;
59008;SDS011;44794;42.652;23.318;2022-11-15T07:59:29;260.75;;;71.20;;
59008;SDS011;44794;42.652;23.318;2022-11-15T08:01:55;330.00;;;74.57;;
59008;SDS011;44794;42.652;23.318;2022-11-15T08:04:21;255.45;;;74.10;;
59008;SDS011;44794;42.652;23.318;2022-11-15T08:06:46;264.20;;;74.00;;
59008;SDS011;44794;42.652;23.318;2022-11-15T08:09:12;236.10;;;74.10;;
59008;SDS011;44794;42.652;23.318;2022-11-15T08:11:37;238.65;;;73.90;;
59008;SDS011;44794;42.652;23.318;2022-11-15T08:14:02;212.73;;;69.15;;
59008;SDS011;44794;42.652;23.318;2022-11-15T08:16:28;213.65;;;69.63;;
59008;SDS011;44794;42.652;23.318;2022-11-15T08:18:54;195.32;;;66.88;;
59008;SDS011;44794;42.652;23.318;2022-11-15T08:21:19;210.35;;;70.85;;
59008;SDS011;44794;42.652;23.318;2022-11-15T08:23:45;228.25;;;73.20;;
59008;SDS011;44794;42.652;23.318;2022-11-15T08:26:11;234.98;;;76.63;;
59008;SDS011;44794;42.652;23.318;2022-11-15T08:28:37;211.18;;;69.78;;
59008;SDS011;44794;42.652;23.318;2022-11-15T08:31:03;182.50;;;64.05;;
59008;SDS011;44794;42.652;23.318;2022-11-15T08:33:29;188.18;;;63.58;;
59008;SDS011;44794;42.652;23.318;2022-11-15T08:35:58;199.20;;;65.72;;
59008;SDS011;44794;42.652;23.318;2022-11-15T08:38:25;193.55;;;67.93;;
59008;SDS011;44794;42.652;23.318;2022-11-15T08:40:52;201.05;;;69.30;;
59008;SDS011;44794;42.652;23.318;2022-11-15T08:43:23;206.68;;;71.25;;
59008;SDS011;44794;42.652;23.318;2022-11-15T08:45:48;200.93;;;71.05;;
59008;SDS011;44794;42.652;23.318;2022-11-15T08:48:14;197.77;;;72.18;;
59008;SDS011;44794;42.652;23.318;2022-11-15T08:50:39;194.27;;;73.82;;
59008;SDS011;44794;42.652;23.318;2022-11-15T08:53:06;195.73;;;73.05;;
59008;SDS011;44794;42.652;23.318;2022-11-15T08:55:35;194.98;;;69.13;;
59008;SDS011;44794;42.652;23.318;2022-11-15T08:58:02;204.15;;;71.45;;
59008;SDS011;44794;42.652;23.318;2022-11-15T09:00:27;188.85;;;71.93;;
59008;SDS011;44794;42.652;23.318;2022-11-15T09:02:52;187.73;;;70.80;;
59008;SDS011;44794;42.652;23.318;2022-11-15T09:05:18;186.90;;;68.82;;
59008;SDS011;44794;42.652;23.318;2022-11-15T09:07:43;172.30;;;65.53;;
59008;SDS011;44794;42.652;23.318;2022-11-15T09:10:09;173.90;;;67.72;;
59008;SDS011;44794;42.652;23.318;2022-11-15T09:12:34;166.65;;;63.40;;
59008;SDS011;44794;42.652;23.318;2022-11-15T09:15:00;164.77;;;62.90;;
59008;SDS011;44794;42.652;23.318;2022-11-15T09:17:25;153.52;;;61.80;;
59008;SDS011;44794;42.652;23.318;2022-11-15T09:19:51;148.70;;;61.85;;
59008;SDS011;44794;42.652;23.318;2022-11-15T09:22:16;162.40;;;63.05;;
59008;SDS011;44794;42.652;23.318;2022-11-15T09:24:41;157.77;;;63.92;;
59008;SDS011;44794;42.652;23.318;2022-11-15T09:27:07;164.02;;;63.03;;
59008;SDS011;44794;42.652;23.318;2022-11-15T09:29:32;149.57;;;61.50;;
59008;SDS011;44794;42.652;23.318;2022-11-15T09:31:58;156.93;;;63.05;;
59008;SDS011;44794;42.652;23.318;2022-11-15T09:34:24;166.18;;;65.55;;
59008;SDS011;44794;42.652;23.318;2022-11-15T09:36:49;152.52;;;64.13;;
59008;SDS011;44794;42.652;23.318;2022-11-15T09:39:15;167.05;;;65.82;;
59008;SDS011;44794;42.652;23.318;2022-11-15T09:41:47;161.38;;;64.60;;
59008;SDS011;44794;42.652;23.318;2022-11-15T09:44:42;153.18;;;63.03;;
59008;SDS011;44794;42.652;23.318;2022-11-15T09:50:38;151.68;;;63.88;;
59008;SDS011;44794;42.652;23.318;2022-11-15T09:53:13;148.50;;;62.88;;
59008;SDS011;44794;42.652;23.318;2022-11-15T09:55:51;160.90;;;64.35;;
59008;SDS011;44794;42.652;23.318;2022-11-15T09:58:33;157.85;;;64.38;;
59008;SDS011;44794;42.652;23.318;2022-11-15T10:04:25;156.90;;;64.45;;
59008;SDS011;44794;42.652;23.318;2022-11-15T10:07:01;163.63;;;66.15;;
59008;SDS011;44794;42.652;23.318;2022-11-15T10:09:30;160.30;;;62.55;;
59008;SDS011;44794;42.652;23.318;2022-11-15T10:12:03;156.25;;;65.00;;
59008;SDS011;44794;42.652;23.318;2022-11-15T10:14:29;159.85;;;64.10;;
59008;SDS011;44794;42.652;23.318;2022-11-15T10:22:30;158.18;;;64.45;;
59008;SDS011;44794;42.652;23.318;2022-11-15T10:27:42;150.82;;;63.45;;
59008;SDS011;44794;42.652;23.318;2022-11-15T10:30:14;153.70;;;61.90;;
59008;SDS011;44794;42.652;23.318;2022-11-15T10:32:42;141.05;;;62.00;;
59008;SDS011;44794;42.652;23.318;2022-11-15T10:38:08;148.40;;;65.85;;
59008;SDS011;44794;42.652;23.318;2022-11-15T10:40:35;141.40;;;60.97;;
59008;SDS011;44794;42.652;23.318;2022-11-15T10:45:36;158.35;;;66.13;;
59008;SDS011;44794;42.652;23.318;2022-11-15T10:50:36;149.18;;;64.72;;
59008;SDS011;44794;42.652;23.318;2022-11-15T10:53:03;140.88;;;62.25;;
59008;SDS011;44794;42.652;23.318;2022-11-15T10:55:31;148.82;;;60.55;;
59008;SDS011;44794;42.652;23.318;2022-11-15T10:58:45;132.15;;;60.25;;
59008;SDS011;44794;42.652;23.318;2022-11-15T11:00:51;126.82;;;59.90;;
59008;SDS011;44794;42.652;23.318;2022-11-15T11:03:34;134.88;;;61.75;;
59008;SDS011;44794;42.652;23.318;2022-11-15T11:06:03;148.02;;;61.85;;
59008;SDS011;44794;42.652;23.318;2022-11-15T11:08:31;127.35;;;58.75;;
59008;SDS011;44794;42.652;23.318;2022-11-15T11:10:59;121.55;;;56.70;;
59008;SDS011;44794;42.652;23.318;2022-11-15T11:13:27;115.78;;;57.00;;
59008;SDS011;44794;42.652;23.318;2022-11-15T11:18:41;129.63;;;56.67;;
59008;SDS011;44794;42.652;23.318;2022-11-15T11:21:34;118.78;;;57.17;;
59008;SDS011;44794;42.652;23.318;2022-11-15T11:26:59;116.95;;;57.00;;
59008;SDS011;44794;42.652;23.318;2022-11-15T11:41:10;211.98;;;90.40;;
59008;SDS011;44794;42.652;23.318;2022-11-15T11:49:43;132.95;;;62.78;;
59008;SDS011;44794;42.652;23.318;2022-11-15T11:54:49;129.57;;;60.42;;
59008;SDS011;44794;42.652;23.318;2022-11-15T11:57:29;125.47;;;60.20;;
59008;SDS011;44794;42.652;23.318;2022-11-15T12:00:03;205.90;;;91.55;;
59008;SDS011;44794;42.652;23.318;2022-11-15T12:02:42;121.72;;;59.25;;
59008;SDS011;44794;42.652;23.318;2022-11-15T12:05:13;122.70;;;58.33;;
59008;SDS011;44794;42.652;23.318;2022-11-15T12:07:53;120.25;;;59.08;;
59008;SDS011;44794;42.652;23.318;2022-11-15T12:10:28;123.20;;;58.63;;
59008;SDS011;44794;42.652;23.318;2022-11-15T12:13:02;126.72;;;60.67;;
59008;SDS011;44794;42.652;23.318;2022-11-15T12:16:07;124.28;;;59.65;;
59008;SDS011;44794;42.652;23.318;2022-11-15T12:18:40;119.53;;;57.33;;
59008;SDS011;44794;42.652;23.318;2022-11-15T12:21:31;119.35;;;57.53;;
59008;SDS011;44794;42.652;23.318;2022-11-15T12:24:05;120.13;;;57.92;;
59008;SDS011;44794;42.652;23.318;2022-11-15T12:26:54;119.50;;;59.03;;
59008;SDS011;44794;42.652;23.318;2022-11-15T12:29:36;124.93;;;58.22;;
59008;SDS011;44794;42.652;23.318;2022-11-15T12:32:04;111.95;;;57.55;;
59008;SDS011;44794;42.652;23.318;2022-11-15T12:34:41;114.63;;;57.33;;
59008;SDS011;44794;42.652;23.318;2022-11-15T12:45:00;128.98;;;58.80;;
59008;SDS011;44794;42.652;23.318;2022-11-15T12:47:26;120.97;;;58.63;;
59008;SDS011;44794;42.652;23.318;2022-11-15T12:49:52;115.80;;;56.90;;
59008;SDS011;44794;42.652;23.318;2022-11-15T12:52:18;119.72;;;57.72;;
59008;SDS011;44794;42.652;23.318;2022-11-15T12:54:49;122.00;;;56.95;;
59008;SDS011;44794;42.652;23.318;2022-11-15T12:59:49;109.70;;;56.03;;
59008;SDS011;44794;42.652;23.318;2022-11-15T13:02:18;118.75;;;55.85;;
59008;SDS011;44794;42.652;23.318;2022-11-15T13:04:52;120.88;;;57.20;;
59008;SDS011;44794;42.652;23.318;2022-11-15T13:10:38;111.40;;;54.25;;
59008;SDS011;44794;42.652;23.318;2022-11-15T13:13:06;110.55;;;56.25;;
59008;SDS011;44794;42.652;23.318;2022-11-15T13:20:59;130.45;;;56.78;;
59008;SDS011;44794;42.652;23.318;2022-11-15T13:23:25;111.80;;;54.33;;
59008;SDS011;44794;42.652;23.318;2022-11-15T13:25:56;111.60;;;56.45;;
59008;SDS011;44794;42.652;23.318;2022-11-15T13:30:52;114.63;;;57.08;;
59008;SDS011;44794;42.652;23.318;2022-11-15T13:33:20;109.63;;;56.08;;
59008;SDS011;44794;42.652;23.318;2022-11-15T13:35:49;109.53;;;53.65;;
59008;SDS011;44794;42.652;23.318;2022-11-15T13:40:50;110.60;;;53.70;;
59008;SDS011;44794;42.652;23.318;2022-11-15T13:46:04;112.75;;;53.67;;
59008;SDS011;44794;42.652;23.318;2022-11-15T13:48:30;106.22;;;53.97;;
59008;SDS011;44794;42.652;23.318;2022-11-15T13:50:56;111.07;;;53.40;;
59008;SDS011;44794;42.652;23.318;2022-11-15T13:53:22;109.95;;;54.05;;
59008;SDS011;44794;42.652;23.318;2022-11-15T13:55:49;111.38;;;54.83;;
59008;SDS011;44794;42.652;23.318;2022-11-15T13:58:16;113.72;;;54.78;;
59008;SDS011;44794;42.652;23.318;2022-11-15T14:00:43;125.70;;;56.03;;
59008;SDS011;44794;42.652;23.318;2022-11-15T14:05:44;114.28;;;54.90;;
59008;SDS011;44794;42.652;23.318;2022-11-15T14:08:28;115.53;;;56.67;;
59008;SDS011;44794;42.652;23.318;2022-11-15T14:13:59;104.82;;;53.75;;
59008;SDS011;44794;42.652;23.318;2022-11-15T14:19:02;119.97;;;55.05;;
59008;SDS011;44794;42.652;23.318;2022-11-15T14:21:29;115.75;;;55.50;;
59008;SDS011;44794;42.652;23.318;2022-11-15T14:24:14;115.05;;;53.38;;
59008;SDS011;44794;42.652;23.318;2022-11-15T14:26:41;116.32;;;55.65;;
59008;SDS011;44794;42.652;23.318;2022-11-15T14:29:25;119.68;;;55.63;;
59008;SDS011;44794;42.652;23.318;2022-11-15T14:31:53;113.97;;;55.08;;
59008;SDS011;44794;42.652;23.318;2022-11-15T14:34:31;115.15;;;55.80;;
59008;SDS011;44794;42.652;23.318;2022-11-15T14:36:57;118.90;;;58.97;;
59008;SDS011;44794;42.652;23.318;2022-11-15T14:39:26;128.70;;;62.20;;
59008;SDS011;44794;42.652;23.318;2022-11-15T14:41:51;125.80;;;60.28;;
59008;SDS011;44794;42.652;23.318;2022-11-15T14:44:17;124.97;;;60.60;;
59008;SDS011;44794;42.652;23.318;2022-11-15T14:46:43;132.65;;;60.63;;
59008;SDS011;44794;42.652;23.318;2022-11-15T14:49:09;131.68;;;61.25;;
59008;SDS011;44794;42.652;23.318;2022-11-15T14:51:35;123.13;;;59.55;;
59008;SDS011;44794;42.652;23.318;2022-11-15T14:54:00;133.38;;;58.15;;
59008;SDS011;44794;42.652;23.318;2022-11-15T14:56:26;142.45;;;60.75;;
59008;SDS011;44794;42.652;23.318;2022-11-15T14:58:52;125.57;;;62.03;;
59008;SDS011;44794;42.652;23.318;2022-11-15T15:01:20;126.35;;;61.80;;
59008;SDS011;44794;42.652;23.318;2022-11-15T15:06:13;137.27;;;63.25;;
59008;SDS011;44794;42.652;23.318;2022-11-15T15:08:39;147.00;;;69.47;;
59008;SDS011;44794;42.652;23.318;2022-11-15T15:11:14;153.80;;;71.15;;
59008;SDS011;44794;42.652;23.318;2022-11-15T15:13:42;149.25;;;71.03;;
59008;SDS011;44794;42.652;23.318;2022-11-15T15:16:08;155.75;;;69.65;;
59008;SDS011;44794;42.652;23.318;2022-11-15T15:18:33;160.85;;;75.55;;
59008;SDS011;44794;42.652;23.318;2022-11-15T15:20:59;166.20;;;76.38;;
59008;SDS011;44794;42.652;23.318;2022-11-15T15:23:28;155.98;;;75.78;;
59008;SDS011;44794;42.652;23.318;2022-11-15T15:25:57;159.63;;;74.97;;
59008;SDS011;44794;42.652;23.318;2022-11-15T15:28:23;162.38;;;77.15;;
59008;SDS011;44794;42.652;23.318;2022-11-15T15:30:48;157.68;;;75.32;;
59008;SDS011;44794;42.652;23.318;2022-11-15T15:33:14;164.55;;;78.30;;
59008;SDS011;44794;42.652;23.318;2022-11-15T15:35:41;165.80;;;78.88;;
59008;SDS011;44794;42.652;23.318;2022-11-15T15:38:09;170.50;;;78.35;;
59008;SDS011;44794;42.652;23.318;2022-11-15T15:40:37;160.23;;;70.93;;
59008;SDS011;44794;42.652;23.318;2022-11-15T15:43:02;158.40;;;72.47;;
59008;SDS011;44794;42.652;23.318;2022-11-15T15:45:28;162.13;;;73.75;;
59008;SDS011;44794;42.652;23.318;2022-11-15T15:47:54;172.07;;;76.68;;
59008;SDS011;44794;42.652;23.318;2022-11-15T15:50:22;171.95;;;79.07;;
59008;SDS011;44794;42.652;23.318;2022-11-15T15:52:53;174.65;;;76.97;;
59008;SDS011;44794;42.652;23.318;2022-11-15T15:55:20;165.15;;;77.80;;
59008;SDS011;44794;42.652;23.318;2022-11-15T15:57:46;178.13;;;76.65;;